createdAt,value
2017-01-28T00:00:19.023Z,1020.07
2017-01-28T00:01:02.183Z,1020.01
2017-01-28T00:01:42.682Z,1020.05
2017-01-28T00:02:23.255Z,1020.1
2017-01-28T00:03:03.827Z,1020.06
2017-01-28T00:03:45.209Z,1020.08
2017-01-28T00:04:26.362Z,1020.08
2017-01-28T00:05:12.367Z,1020.04
2017-01-28T00:05:54.628Z,1020.02
2017-01-28T00:06:35.169Z,1020
2017-01-28T00:07:17.285Z,1019.97
2017-01-28T00:07:59.394Z,1019.97
2017-01-28T00:08:41.583Z,1019.97
2017-01-28T00:09:24.353Z,1019.92
2017-01-28T00:10:06.485Z,1019.91
2017-01-28T00:10:50.413Z,1019.92
2017-01-28T00:11:32.527Z,1019.94
2017-01-28T00:12:13.731Z,1019.9
2017-01-28T00:12:55.196Z,1019.94
2017-01-28T00:13:35.734Z,1019.92
2017-01-28T00:14:16.196Z,1019.95
2017-01-28T00:14:56.713Z,1019.92
2017-01-28T00:15:37.156Z,1019.95
2017-01-28T00:16:17.654Z,1019.97
2017-01-28T00:16:59.903Z,1019.94
2017-01-28T00:17:40.390Z,1019.94
2017-01-28T00:18:21.615Z,1019.93
2017-01-28T00:19:04.364Z,1019.94
2017-01-28T00:19:46.684Z,1019.95
2017-01-28T00:20:27.219Z,1019.88
2017-01-28T00:21:09.512Z,1019.93
2017-01-28T00:21:51.645Z,1019.97
2017-01-28T00:22:33.881Z,1019.92
2017-01-28T00:23:16.005Z,1019.86
2017-01-28T00:23:57.288Z,1019.92
2017-01-28T00:24:38.739Z,1019.93
2017-01-28T00:25:21.640Z,1019.88
2017-01-28T00:26:02.112Z,1019.94
2017-01-28T00:26:44.044Z,1019.88
2017-01-28T00:27:24.520Z,1019.89
2017-01-28T00:28:05.885Z,1019.88
2017-01-28T00:28:47.198Z,1019.84
2017-01-28T00:29:27.657Z,1019.88
2017-01-28T00:30:08.860Z,1019.9
2017-01-28T00:30:49.915Z,1019.85
2017-01-28T00:31:30.513Z,1019.86
2017-01-28T00:32:11.833Z,1019.88
2017-01-28T00:32:52.908Z,1019.88
2017-01-28T00:33:33.966Z,1019.88
2017-01-28T00:34:15.898Z,1019.88
2017-01-28T00:34:56.880Z,1019.87
2017-01-28T00:35:39.980Z,1019.88
2017-01-28T00:36:21.404Z,1019.89
2017-01-28T00:37:04.653Z,1019.87
2017-01-28T00:37:47.650Z,1019.88
2017-01-28T00:38:29.063Z,1019.91
2017-01-28T00:39:09.549Z,1019.87
2017-01-28T00:39:51.666Z,1019.79
2017-01-28T00:40:32.866Z,1019.87
2017-01-28T00:41:14.232Z,1019.83
2017-01-28T00:41:55.702Z,1019.84
2017-01-28T00:42:37.792Z,1019.87
2017-01-28T00:43:19.182Z,1019.89
2017-01-28T00:44:01.169Z,1019.83
2017-01-28T00:44:42.379Z,1019.85
2017-01-28T00:45:23.674Z,1019.82
2017-01-28T00:46:04.289Z,1019.78
2017-01-28T00:46:45.601Z,1019.81
2017-01-28T00:47:27.826Z,1019.75
2017-01-28T00:48:12.015Z,1019.77
2017-01-28T00:48:52.559Z,1019.79
2017-01-28T00:49:35.016Z,1019.76
2017-01-28T00:50:17.030Z,1019.81
2017-01-28T00:50:58.349Z,1019.8
2017-01-28T00:51:41.398Z,1019.78
2017-01-28T00:52:22.802Z,1019.77
2017-01-28T00:53:03.290Z,1019.76
2017-01-28T00:53:44.548Z,1019.76
2017-01-28T00:54:25.639Z,1019.71
2017-01-28T00:55:10.383Z,1019.76
2017-01-28T00:55:51.471Z,1019.71
2017-01-28T00:56:32.814Z,1019.76
2017-01-28T00:57:13.314Z,1019.72
2017-01-28T00:57:54.422Z,1019.7
2017-01-28T00:58:36.781Z,1019.67
2017-01-28T00:59:18.104Z,1019.67
2017-01-28T00:59:58.607Z,1019.7
2017-01-28T01:00:39.121Z,1019.71
2017-01-28T01:01:20.862Z,1019.65
2017-01-28T01:02:02.070Z,1019.68
2017-01-28T01:02:45.106Z,1019.64
2017-01-28T01:03:27.094Z,1019.66
2017-01-28T01:04:08.343Z,1019.73
2017-01-28T01:04:48.886Z,1019.69
2017-01-28T01:05:29.973Z,1019.68
2017-01-28T01:06:11.426Z,1019.7
2017-01-28T01:06:52.868Z,1019.68
2017-01-28T01:07:34.374Z,1019.7
2017-01-28T01:08:20.470Z,1019.68
2017-01-28T01:09:03.514Z,1019.67
2017-01-28T01:09:44.714Z,1019.64
2017-01-28T01:10:26.103Z,1019.67
2017-01-28T01:11:07.468Z,1019.63
2017-01-28T01:11:47.877Z,1019.66
2017-01-28T01:12:28.393Z,1019.61
2017-01-28T01:13:11.587Z,1019.63
2017-01-28T01:13:52.867Z,1019.65
2017-01-28T01:14:34.321Z,1019.6
2017-01-28T01:15:15.588Z,1019.62
2017-01-28T01:15:58.535Z,1019.63
2017-01-28T01:16:40.372Z,1019.63
2017-01-28T01:17:20.882Z,1019.62
2017-01-28T01:18:02.241Z,1019.64
2017-01-28T01:18:45.596Z,1019.58
2017-01-28T01:19:26.052Z,1019.62
2017-01-28T01:20:07.227Z,1019.56
2017-01-28T01:20:47.726Z,1019.58
2017-01-28T01:21:28.201Z,1019.58
2017-01-28T01:22:13.650Z,1019.52
2017-01-28T01:22:54.196Z,1019.55
2017-01-28T01:23:35.559Z,1019.56
2017-01-28T01:24:17.498Z,1019.54
2017-01-28T01:24:58.655Z,1019.53
2017-01-28T01:25:39.196Z,1019.49
2017-01-28T01:26:19.628Z,1019.53
2017-01-28T01:27:01.050Z,1019.52
2017-01-28T01:27:42.365Z,1019.53
2017-01-28T01:28:25.339Z,1019.57
2017-01-28T01:29:06.527Z,1019.51
2017-01-28T01:29:47.022Z,1019.56
2017-01-28T01:30:28.248Z,1019.54
2017-01-28T01:31:08.731Z,1019.54
2017-01-28T01:31:49.766Z,1019.55
2017-01-28T01:32:33.260Z,1019.52
2017-01-28T01:33:13.807Z,1019.5
2017-01-28T01:33:54.278Z,1019.48
2017-01-28T01:34:35.751Z,1019.51
2017-01-28T01:35:19.408Z,1019.49
2017-01-28T01:35:59.924Z,1019.48
2017-01-28T01:36:41.162Z,1019.47
2017-01-28T01:37:21.691Z,1019.49
2017-01-28T01:38:02.193Z,1019.43
2017-01-28T01:38:43.182Z,1019.48
2017-01-28T01:39:23.700Z,1019.45
2017-01-28T01:40:04.267Z,1019.41
2017-01-28T01:40:44.751Z,1019.44
2017-01-28T01:41:27.898Z,1019.42
2017-01-28T01:42:08.383Z,1019.45
2017-01-28T01:42:49.885Z,1019.44
2017-01-28T01:43:30.375Z,1019.4
2017-01-28T01:44:11.568Z,1019.44
2017-01-28T01:44:54.597Z,1019.48
2017-01-28T01:45:35.136Z,1019.44
2017-01-28T01:46:16.635Z,1019.48
2017-01-28T01:46:57.815Z,1019.46
2017-01-28T01:47:38.321Z,1019.47
2017-01-28T01:48:19.369Z,1019.49
2017-01-28T01:49:00.663Z,1019.47
2017-01-28T01:49:41.847Z,1019.46
2017-01-28T01:50:23.137Z,1019.51
2017-01-28T01:51:05.881Z,1019.42
2017-01-28T01:51:46.496Z,1019.47
2017-01-28T01:52:27.873Z,1019.47
2017-01-28T01:53:08.383Z,1019.47
2017-01-28T01:53:49.647Z,1019.45
2017-01-28T01:54:34.910Z,1019.46
2017-01-28T01:55:15.380Z,1019.46
2017-01-28T01:55:55.842Z,1019.47
2017-01-28T01:56:36.307Z,1019.5
2017-01-28T01:57:16.863Z,1019.5
2017-01-28T01:57:58.100Z,1019.45
2017-01-28T01:58:39.512Z,1019.47
2017-01-28T01:59:22.017Z,1019.49
2017-01-28T02:00:04.095Z,1019.42
2017-01-28T02:00:45.293Z,1019.46
2017-01-28T02:01:26.377Z,1019.41
2017-01-28T02:02:06.883Z,1019.4
2017-01-28T02:02:49.365Z,1019.38
2017-01-28T02:03:30.515Z,1019.4
2017-01-28T02:04:10.964Z,1019.36
2017-01-28T02:04:51.460Z,1019.35
2017-01-28T02:05:32.034Z,1019.34
2017-01-28T02:06:13.311Z,1019.34
2017-01-28T02:06:54.383Z,1019.33
2017-01-28T02:07:36.513Z,1019.37
2017-01-28T02:08:18.728Z,1019.33
2017-01-28T02:09:03.000Z,1019.31
2017-01-28T02:09:46.997Z,1019.32
2017-01-28T02:10:28.356Z,1019.32
2017-01-28T02:11:08.867Z,1019.31
2017-01-28T02:11:52.054Z,1019.29
2017-01-28T02:12:33.121Z,1019.31
2017-01-28T02:13:15.836Z,1019.27
2017-01-28T02:13:56.330Z,1019.26
2017-01-28T02:14:38.712Z,1019.26
2017-01-28T02:15:20.713Z,1019.3
2017-01-28T02:16:01.193Z,1019.31
2017-01-28T02:16:43.353Z,1019.22
2017-01-28T02:17:24.703Z,1019.26
2017-01-28T02:18:05.239Z,1019.26
2017-01-28T02:18:47.391Z,1019.27
2017-01-28T02:19:29.512Z,1019.24
2017-01-28T02:20:17.508Z,1019.25
2017-01-28T02:21:00.512Z,1019.27
2017-01-28T02:21:41.131Z,1019.23
2017-01-28T02:22:23.490Z,1019.24
2017-01-28T02:23:04.024Z,1019.28
2017-01-28T02:23:45.371Z,1019.31
2017-01-28T02:24:28.689Z,1019.29
2017-01-28T02:25:10.853Z,1019.3
2017-01-28T02:25:52.897Z,1019.3
2017-01-28T02:26:33.377Z,1019.25
2017-01-28T02:27:16.518Z,1019.28
2017-01-28T02:28:01.622Z,1019.27
2017-01-28T02:28:42.090Z,1019.29
2017-01-28T02:29:24.063Z,1019.33
2017-01-28T02:30:07.092Z,1019.29
2017-01-28T02:30:50.095Z,1019.25
2017-01-28T02:31:33.379Z,1019.25
2017-01-28T02:32:15.357Z,1019.28
2017-01-28T02:32:57.492Z,1019.28
2017-01-28T02:33:39.867Z,1019.26
2017-01-28T02:34:22.008Z,1019.28
2017-01-28T02:35:04.905Z,1019.34
2017-01-28T02:35:47.087Z,1019.28
2017-01-28T02:38:20.009Z,1019.35
2017-01-28T02:40:46.523Z,1019.3
2017-01-28T02:41:35.346Z,1019.28
2017-01-28T02:42:24.107Z,1019.25
2017-01-28T02:43:13.509Z,1019.26
2017-01-28T02:44:01.905Z,1019.27
2017-01-28T02:44:50.375Z,1019.26
2017-01-28T02:45:39.275Z,1019.26
2017-01-28T02:46:28.022Z,1019.25
2017-01-28T02:47:17.132Z,1019.26
2017-01-28T02:48:05.647Z,1019.28
2017-01-28T02:48:54.007Z,1019.29
2017-01-28T02:49:42.621Z,1019.24
2017-01-28T02:50:31.372Z,1019.21
2017-01-28T02:51:19.813Z,1019.26
2017-01-28T02:52:08.771Z,1019.23
2017-01-28T02:52:57.583Z,1019.22
2017-01-28T02:53:45.541Z,1019.25
2017-01-28T02:54:34.312Z,1019.21
2017-01-28T02:55:23.548Z,1019.21
2017-01-28T02:56:11.933Z,1019.18
2017-01-28T02:57:00.931Z,1019.15
2017-01-28T02:57:49.561Z,1019.15
2017-01-28T02:58:38.099Z,1019.15
2017-01-28T02:59:27.011Z,1019.15
2017-01-28T03:00:15.802Z,1019.23
2017-01-28T03:01:04.497Z,1019.2
2017-01-28T03:01:53.115Z,1019.15
2017-01-28T03:02:42.017Z,1019.21
2017-01-28T03:03:30.836Z,1019.21
2017-01-28T03:04:19.293Z,1019.17
2017-01-28T03:05:08.445Z,1019.17
2017-01-28T03:05:57.316Z,1019.2
2017-01-28T03:06:45.740Z,1019.23
2017-01-28T03:07:34.570Z,1019.17
2017-01-28T03:08:23.016Z,1019.16
2017-01-28T03:09:11.571Z,1019.21
2017-01-28T03:10:00.174Z,1019.22
2017-01-28T03:10:48.662Z,1019.21
2017-01-28T03:11:33.596Z,1019.2
2017-01-28T03:12:14.756Z,1019.17
2017-01-28T03:12:58.151Z,1019.17
2017-01-28T03:13:39.429Z,1019.19
2017-01-28T03:14:21.635Z,1019.13
2017-01-28T03:15:04.495Z,1019.16
2017-01-28T03:15:46.000Z,1019.13
2017-01-28T03:16:27.343Z,1019.11
2017-01-28T03:17:09.462Z,1019.13
2017-01-28T03:17:56.481Z,1019.08
2017-01-28T03:18:37.841Z,1019.1
2017-01-28T03:19:21.003Z,1019.12
2017-01-28T03:20:01.435Z,1019.1
2017-01-28T03:20:42.869Z,1019.05
2017-01-28T03:21:23.465Z,1019.03
2017-01-28T03:22:04.698Z,1019.05
2017-01-28T03:22:45.181Z,1019.03
2017-01-28T03:23:26.606Z,1018.97
2017-01-28T03:24:08.786Z,1019.02
2017-01-28T03:24:49.239Z,1019
2017-01-28T03:25:35.292Z,1019.01
2017-01-28T03:26:18.227Z,1019.01
2017-01-28T03:27:00.373Z,1019
2017-01-28T03:27:40.904Z,1018.96
2017-01-28T03:28:21.361Z,1018.99
2017-01-28T03:29:03.749Z,1018.98
2017-01-28T03:29:46.708Z,1018.98
2017-01-28T03:30:27.978Z,1018.94
2017-01-28T03:31:11.300Z,1018.93
2017-01-28T03:31:53.848Z,1018.9
2017-01-28T03:32:36.508Z,1018.95
2017-01-28T03:33:18.584Z,1018.9
2017-01-28T03:34:00.994Z,1018.9
2017-01-28T03:34:42.284Z,1018.91
2017-01-28T03:35:27.276Z,1018.88
2017-01-28T03:36:07.689Z,1018.84
2017-01-28T03:36:48.889Z,1018.82
2017-01-28T03:37:29.387Z,1018.79
2017-01-28T03:38:12.327Z,1018.76
2017-01-28T03:38:53.519Z,1018.8
2017-01-28T03:39:34.007Z,1018.74
2017-01-28T03:40:14.588Z,1018.74
2017-01-28T03:40:55.107Z,1018.75
2017-01-28T03:41:35.668Z,1018.72
2017-01-28T03:42:16.159Z,1018.69
2017-01-28T03:42:57.487Z,1018.71
2017-01-28T03:43:38.589Z,1018.69
2017-01-28T03:44:19.132Z,1018.7
2017-01-28T03:44:59.684Z,1018.69
2017-01-28T03:45:43.686Z,1018.69
2017-01-28T03:46:26.735Z,1018.72
2017-01-28T03:47:07.230Z,1018.61
2017-01-28T03:47:49.474Z,1018.64
2017-01-28T03:48:29.964Z,1018.68
2017-01-28T03:49:10.406Z,1018.72
2017-01-28T03:49:51.839Z,1018.65
2017-01-28T03:50:35.213Z,1018.65
2017-01-28T03:51:15.691Z,1018.61
2017-01-28T03:51:59.588Z,1018.62
2017-01-28T03:52:41.050Z,1018.62
2017-01-28T03:53:26.996Z,1018.62
2017-01-28T03:54:07.499Z,1018.61
2017-01-28T03:54:48.468Z,1018.6
2017-01-28T03:55:30.794Z,1018.6
2017-01-28T03:56:11.888Z,1018.59
2017-01-28T03:56:54.116Z,1018.6
2017-01-28T03:57:35.508Z,1018.59
2017-01-28T03:58:16.746Z,1018.54
2017-01-28T03:58:58.182Z,1018.51
2017-01-28T03:59:39.960Z,1018.51
2017-01-28T04:00:21.956Z,1018.54
2017-01-28T04:01:02.448Z,1018.56
2017-01-28T04:01:43.759Z,1018.52
2017-01-28T04:02:26.176Z,1018.5
2017-01-28T04:03:08.060Z,1018.48
2017-01-28T04:03:49.260Z,1018.49
2017-01-28T04:04:31.106Z,1018.48
2017-01-28T04:05:11.555Z,1018.47
2017-01-28T04:05:52.626Z,1018.47
2017-01-28T04:06:33.191Z,1018.48
2017-01-28T04:07:13.705Z,1018.47
2017-01-28T04:07:54.793Z,1018.47
2017-01-28T04:08:35.344Z,1018.49
2017-01-28T04:09:16.539Z,1018.46
2017-01-28T04:09:57.880Z,1018.47
2017-01-28T04:10:38.354Z,1018.44
2017-01-28T04:11:20.291Z,1018.46
2017-01-28T04:12:01.619Z,1018.41
2017-01-28T04:12:42.809Z,1018.41
2017-01-28T04:13:23.290Z,1018.44
2017-01-28T04:14:03.842Z,1018.44
2017-01-28T04:14:45.172Z,1018.38
2017-01-28T04:15:26.284Z,1018.43
2017-01-28T04:16:06.857Z,1018.37
2017-01-28T04:16:47.295Z,1018.41
2017-01-28T04:17:28.402Z,1018.38
2017-01-28T04:18:08.914Z,1018.44
2017-01-28T04:18:50.264Z,1018.4
2017-01-28T04:19:30.804Z,1018.4
2017-01-28T04:20:11.367Z,1018.43
2017-01-28T04:20:52.679Z,1018.38
2017-01-28T04:21:33.182Z,1018.37
2017-01-28T04:22:13.656Z,1018.35
2017-01-28T04:22:55.101Z,1018.37
2017-01-28T04:23:35.583Z,1018.44
2017-01-28T04:24:17.797Z,1018.44
2017-01-28T04:24:59.837Z,1018.44
2017-01-28T04:25:41.109Z,1018.42
2017-01-28T04:26:23.977Z,1018.46
2017-01-28T04:27:05.080Z,1018.46
2017-01-28T04:27:48.274Z,1018.45
2017-01-28T04:28:28.743Z,1018.45
2017-01-28T04:29:09.222Z,1018.48
2017-01-28T04:29:49.731Z,1018.46
2017-01-28T04:30:30.885Z,1018.5
2017-01-28T04:31:11.341Z,1018.5
2017-01-28T04:31:52.701Z,1018.49
2017-01-28T04:32:33.701Z,1018.5
2017-01-28T04:33:14.150Z,1018.54
2017-01-28T04:33:54.663Z,1018.56
2017-01-28T04:34:36.122Z,1018.57
2017-01-28T04:35:16.607Z,1018.52
2017-01-28T04:35:57.130Z,1018.58
2017-01-28T04:36:37.671Z,1018.57
2017-01-28T04:37:18.130Z,1018.56
2017-01-28T04:37:58.620Z,1018.55
2017-01-28T04:38:40.595Z,1018.55
2017-01-28T04:39:21.104Z,1018.57
2017-01-28T04:40:01.597Z,1018.54
2017-01-28T04:40:43.053Z,1018.51
2017-01-28T04:41:23.585Z,1018.57
2017-01-28T04:42:04.047Z,1018.54
2017-01-28T04:42:46.979Z,1018.54
2017-01-28T04:43:29.232Z,1018.57
2017-01-28T04:44:10.373Z,1018.57
2017-01-28T04:44:51.459Z,1018.56
2017-01-28T04:45:31.962Z,1018.55
2017-01-28T04:46:12.442Z,1018.56
2017-01-28T04:46:53.616Z,1018.56
2017-01-28T04:47:34.190Z,1018.63
2017-01-28T04:48:14.627Z,1018.61
2017-01-28T04:48:57.624Z,1018.59
2017-01-28T04:49:38.122Z,1018.71
2017-01-28T04:50:20.308Z,1018.75
2017-01-28T04:51:02.827Z,1018.73
2017-01-28T04:51:44.175Z,1018.78
2017-01-28T04:52:25.256Z,1018.77
2017-01-28T04:53:05.733Z,1018.78
2017-01-28T04:53:46.734Z,1018.82
2017-01-28T04:54:27.273Z,1018.78
2017-01-28T04:55:08.743Z,1018.79
2017-01-28T04:55:49.300Z,1018.8
2017-01-28T04:56:30.772Z,1018.85
2017-01-28T04:57:12.458Z,1018.87
2017-01-28T04:57:52.918Z,1018.81
2017-01-28T04:58:34.349Z,1018.83
2017-01-28T04:59:16.561Z,1018.87
2017-01-28T04:59:57.083Z,1018.88
2017-01-28T05:00:38.250Z,1018.85
2017-01-28T05:01:19.673Z,1018.84
2017-01-28T05:02:00.790Z,1018.82
2017-01-28T05:02:42.099Z,1018.79
2017-01-28T05:03:22.650Z,1018.79
2017-01-28T05:04:03.095Z,1018.78
2017-01-28T05:04:45.391Z,1018.78
2017-01-28T05:05:25.888Z,1018.77
2017-01-28T05:06:07.285Z,1018.75
2017-01-28T05:06:47.759Z,1018.75
2017-01-28T05:07:30.618Z,1018.73
2017-01-28T05:08:11.118Z,1018.73
2017-01-28T05:08:53.447Z,1018.71
2017-01-28T05:09:34.649Z,1018.7
2017-01-28T05:10:15.163Z,1018.7
2017-01-28T05:10:56.329Z,1018.71
2017-01-28T05:11:36.823Z,1018.74
2017-01-28T05:12:17.329Z,1018.73
2017-01-28T05:12:58.967Z,1018.74
2017-01-28T05:13:39.466Z,1018.72
2017-01-28T05:14:20.863Z,1018.71
2017-01-28T05:15:03.961Z,1018.69
2017-01-28T05:15:44.410Z,1018.71
2017-01-28T05:16:24.886Z,1018.68
2017-01-28T05:17:06.290Z,1018.69
2017-01-28T05:17:46.783Z,1018.68
2017-01-28T05:18:27.263Z,1018.71
2017-01-28T05:19:08.579Z,1018.7
2017-01-28T05:19:49.941Z,1018.7
2017-01-28T05:20:30.435Z,1018.72
2017-01-28T05:21:10.970Z,1018.71
2017-01-28T05:21:51.449Z,1018.74
2017-01-28T05:22:32.031Z,1018.69
2017-01-28T05:23:12.532Z,1018.73
2017-01-28T05:23:52.989Z,1018.71
2017-01-28T05:24:33.506Z,1018.69
2017-01-28T05:25:14.084Z,1018.67
2017-01-28T05:25:55.974Z,1018.68
2017-01-28T05:26:36.476Z,1018.67
2017-01-28T05:27:18.465Z,1018.69
2017-01-28T05:27:59.782Z,1018.67
2017-01-28T05:28:42.916Z,1018.74
2017-01-28T05:29:23.394Z,1018.65
2017-01-28T05:30:05.586Z,1018.7
2017-01-28T05:30:47.656Z,1018.66
2017-01-28T05:31:28.148Z,1018.7
2017-01-28T05:32:08.589Z,1018.68
2017-01-28T05:32:49.153Z,1018.68
2017-01-28T05:33:31.939Z,1018.69
2017-01-28T05:34:13.064Z,1018.67
2017-01-28T05:34:54.387Z,1018.71
2017-01-28T05:35:35.715Z,1018.7
2017-01-28T05:36:16.161Z,1018.69
2017-01-28T05:36:58.448Z,1018.71
2017-01-28T05:37:38.925Z,1018.68
2017-01-28T05:38:19.404Z,1018.7
2017-01-28T05:38:59.924Z,1018.63
2017-01-28T05:39:40.442Z,1018.66
2017-01-28T05:40:20.932Z,1018.6
2017-01-28T05:41:03.935Z,1018.65
2017-01-28T05:41:44.512Z,1018.61
2017-01-28T05:42:28.448Z,1018.62
2017-01-28T05:43:10.685Z,1018.64
2017-01-28T05:43:51.173Z,1018.67
2017-01-28T05:44:32.481Z,1018.65
2017-01-28T05:45:13.851Z,1018.61
2017-01-28T05:45:54.328Z,1018.63
2017-01-28T05:46:34.790Z,1018.63
2017-01-28T05:47:17.189Z,1018.63
2017-01-28T05:47:58.366Z,1018.6
2017-01-28T05:48:42.470Z,1018.63
2017-01-28T05:49:25.488Z,1018.65
2017-01-28T05:50:07.918Z,1018.67
2017-01-28T05:50:49.166Z,1018.67
2017-01-28T05:51:29.664Z,1018.63
2017-01-28T05:52:10.173Z,1018.65
2017-01-28T05:52:51.599Z,1018.67
2017-01-28T05:53:33.748Z,1018.63
2017-01-28T05:54:15.474Z,1018.66
2017-01-28T05:54:56.969Z,1018.63
2017-01-28T05:55:38.263Z,1018.63
2017-01-28T05:56:18.758Z,1018.62
2017-01-28T05:56:59.320Z,1018.63
2017-01-28T05:57:42.143Z,1018.67
2017-01-28T05:58:22.578Z,1018.63
2017-01-28T05:59:04.457Z,1018.63
2017-01-28T05:59:46.573Z,1018.62
2017-01-28T06:00:29.861Z,1018.59
2017-01-28T06:01:11.062Z,1018.61
2017-01-28T06:01:52.191Z,1018.58
2017-01-28T06:02:33.164Z,1018.57
2017-01-28T06:03:13.690Z,1018.6
2017-01-28T06:03:54.193Z,1018.55
2017-01-28T06:04:36.962Z,1018.56
2017-01-28T06:05:17.472Z,1018.57
2017-01-28T06:05:57.976Z,1018.6
2017-01-28T06:06:39.279Z,1018.59
2017-01-28T06:07:19.787Z,1018.58
2017-01-28T06:08:00.285Z,1018.66
2017-01-28T06:08:41.252Z,1018.63
2017-01-28T06:09:21.812Z,1018.58
2017-01-28T06:10:02.309Z,1018.62
2017-01-28T06:10:42.863Z,1018.61
2017-01-28T06:11:25.105Z,1018.63
2017-01-28T06:12:06.394Z,1018.63
2017-01-28T06:12:47.750Z,1018.68
2017-01-28T06:13:29.277Z,1018.64
2017-01-28T06:14:11.005Z,1018.58
2017-01-28T06:14:52.291Z,1018.64
2017-01-28T06:15:32.833Z,1018.68
2017-01-28T06:16:14.095Z,1018.66
2017-01-28T06:16:55.509Z,1018.65
2017-01-28T06:17:35.996Z,1018.68
2017-01-28T06:18:16.550Z,1018.68
2017-01-28T06:18:58.782Z,1018.65
2017-01-28T06:19:43.718Z,1018.68
2017-01-28T06:20:24.194Z,1018.69
2017-01-28T06:21:04.678Z,1018.72
2017-01-28T06:21:45.251Z,1018.73
2017-01-28T06:22:26.635Z,1018.73
2017-01-28T06:23:07.930Z,1018.68
2017-01-28T06:23:48.475Z,1018.72
2017-01-28T06:24:28.979Z,1018.69
2017-01-28T06:25:10.108Z,1018.69
2017-01-28T06:25:50.554Z,1018.69
2017-01-28T06:26:31.089Z,1018.67
2017-01-28T06:27:11.579Z,1018.7
2017-01-28T06:27:52.097Z,1018.64
2017-01-28T06:28:33.360Z,1018.68
2017-01-28T06:29:13.859Z,1018.65
2017-01-28T06:29:55.234Z,1018.61
2017-01-28T06:30:35.751Z,1018.68
2017-01-28T06:31:16.260Z,1018.67
2017-01-28T06:31:56.728Z,1018.63
2017-01-28T06:32:38.959Z,1018.61
2017-01-28T06:33:20.392Z,1018.61
2017-01-28T06:34:01.758Z,1018.66
2017-01-28T06:34:42.306Z,1018.61
2017-01-28T06:35:22.750Z,1018.64
2017-01-28T06:36:04.441Z,1018.6
2017-01-28T06:36:44.999Z,1018.58
2017-01-28T06:37:25.482Z,1018.61
2017-01-28T06:38:05.940Z,1018.59
2017-01-28T06:38:48.022Z,1018.57
2017-01-28T06:39:29.444Z,1018.64
2017-01-28T06:40:10.866Z,1018.58
2017-01-28T06:40:53.163Z,1018.61
2017-01-28T06:41:33.705Z,1018.59
2017-01-28T06:42:14.227Z,1018.62
2017-01-28T06:42:56.992Z,1018.63
2017-01-28T06:43:38.539Z,1018.66
2017-01-28T06:44:19.084Z,1018.64
2017-01-28T06:45:00.969Z,1018.67
2017-01-28T06:45:42.360Z,1018.67
2017-01-28T06:46:23.592Z,1018.68
2017-01-28T06:47:04.852Z,1018.7
2017-01-28T06:47:45.448Z,1018.7
2017-01-28T06:48:25.886Z,1018.65
2017-01-28T06:49:06.347Z,1018.67
2017-01-28T06:49:47.377Z,1018.67
2017-01-28T06:50:27.989Z,1018.7
2017-01-28T06:51:08.497Z,1018.71
2017-01-28T06:51:50.982Z,1018.63
2017-01-28T06:52:31.432Z,1018.7
2017-01-28T06:53:11.989Z,1018.76
2017-01-28T06:53:52.435Z,1018.74
2017-01-28T06:54:32.917Z,1018.7
2017-01-28T06:55:13.406Z,1018.69
2017-01-28T06:55:53.968Z,1018.68
2017-01-28T06:56:36.117Z,1018.69
2017-01-28T06:57:18.377Z,1018.71
2017-01-28T06:57:58.835Z,1018.72
2017-01-28T06:58:40.753Z,1018.69
2017-01-28T06:59:21.233Z,1018.68
2017-01-28T07:00:02.412Z,1018.71
2017-01-28T07:00:42.925Z,1018.68
2017-01-28T07:01:23.960Z,1018.65
2017-01-28T07:02:05.987Z,1018.71
2017-01-28T07:02:47.471Z,1018.66
2017-01-28T07:03:27.888Z,1018.66
2017-01-28T07:04:10.942Z,1018.65
2017-01-28T07:04:51.479Z,1018.64
2017-01-28T07:05:31.942Z,1018.64
2017-01-28T07:06:12.425Z,1018.63
2017-01-28T07:06:52.942Z,1018.63
2017-01-28T07:07:35.095Z,1018.65
2017-01-28T07:08:15.584Z,1018.65
2017-01-28T07:08:56.768Z,1018.64
2017-01-28T07:09:37.270Z,1018.57
2017-01-28T07:10:18.713Z,1018.6
2017-01-28T07:10:59.110Z,1018.59
2017-01-28T07:11:39.644Z,1018.58
2017-01-28T07:12:21.067Z,1018.54
2017-01-28T07:13:01.603Z,1018.61
2017-01-28T07:13:43.431Z,1018.63
2017-01-28T07:14:24.601Z,1018.59
2017-01-28T07:15:05.069Z,1018.58
2017-01-28T07:15:46.451Z,1018.59
2017-01-28T07:16:26.917Z,1018.59
2017-01-28T07:17:07.464Z,1018.64
2017-01-28T07:17:47.965Z,1018.63
2017-01-28T07:18:29.446Z,1018.66
2017-01-28T07:19:11.551Z,1018.65
2017-01-28T07:19:52.075Z,1018.67
2017-01-28T07:20:33.345Z,1018.68
2017-01-28T07:21:13.893Z,1018.72
2017-01-28T07:21:54.343Z,1018.71
2017-01-28T07:22:34.823Z,1018.72
2017-01-28T07:23:16.397Z,1018.73
2017-01-28T07:23:56.913Z,1018.71
2017-01-28T07:24:37.417Z,1018.66
2017-01-28T07:25:17.870Z,1018.68
2017-01-28T07:25:58.379Z,1018.68
2017-01-28T07:26:38.838Z,1018.67
2017-01-28T07:27:19.308Z,1018.65
2017-01-28T07:27:59.816Z,1018.63
2017-01-28T07:28:40.283Z,1018.63
2017-01-28T07:29:20.787Z,1018.67
2017-01-28T07:30:01.305Z,1018.64
2017-01-28T07:30:59.437Z,1018.62
2017-01-28T07:31:44.074Z,1018.66
2017-01-28T07:32:24.619Z,1018.63
2017-01-28T07:33:05.067Z,1018.64
2017-01-28T07:33:45.529Z,1018.63
2017-01-28T07:34:26.000Z,1018.6
2017-01-28T07:35:06.466Z,1018.65
2017-01-28T07:35:46.998Z,1018.61
2017-01-28T07:36:27.424Z,1018.66
2017-01-28T07:37:07.922Z,1018.65
2017-01-28T07:37:48.411Z,1018.67
2017-01-28T07:38:28.919Z,1018.63
2017-01-28T07:39:09.525Z,1018.64
2017-01-28T07:39:50.069Z,1018.69
2017-01-28T07:40:30.573Z,1018.65
2017-01-28T07:41:11.089Z,1018.7
2017-01-28T07:41:51.744Z,1018.66
2017-01-28T07:42:32.176Z,1018.65
2017-01-28T07:43:12.720Z,1018.64
2017-01-28T07:43:53.176Z,1018.67
2017-01-28T07:44:33.674Z,1018.67
2017-01-28T07:45:14.159Z,1018.64
2017-01-28T07:45:54.827Z,1018.69
2017-01-28T07:46:35.360Z,1018.65
2017-01-28T07:47:15.794Z,1018.66
2017-01-28T07:47:56.452Z,1018.62
2017-01-28T07:48:38.340Z,1018.65
2017-01-28T07:49:18.836Z,1018.63
2017-01-28T07:49:59.857Z,1018.62
2017-01-28T07:50:40.404Z,1018.63
2017-01-28T07:51:21.347Z,1018.63
2017-01-28T07:52:01.820Z,1018.56
2017-01-28T07:52:43.741Z,1018.62
2017-01-28T07:53:22.989Z,1018.62
2017-01-28T07:54:03.633Z,1018.57
2017-01-28T07:54:44.244Z,1018.62
2017-01-28T07:55:24.869Z,1018.55
2017-01-28T07:56:06.855Z,1018.6
2017-01-28T07:56:47.325Z,1018.61
2017-01-28T07:57:28.230Z,1018.61
2017-01-28T07:58:08.534Z,1018.64
2017-01-28T07:58:48.995Z,1018.6
2017-01-28T07:59:29.789Z,1018.62
2017-01-28T08:00:11.105Z,1018.62
2017-01-28T08:00:51.800Z,1018.63
2017-01-28T08:01:32.957Z,1018.61
2017-01-28T08:02:15.024Z,1018.64
2017-01-28T08:02:55.882Z,1018.7
2017-01-28T08:03:36.213Z,1018.62
2017-01-28T08:04:16.783Z,1018.68
2017-01-28T08:04:57.266Z,1018.68
2017-01-28T08:05:37.906Z,1018.66
2017-01-28T08:06:18.367Z,1018.64
2017-01-28T08:06:59.462Z,1018.62
2017-01-28T08:07:40.049Z,1018.61
2017-01-28T08:08:20.605Z,1018.62
2017-01-28T08:09:01.014Z,1018.65
2017-01-28T08:09:41.502Z,1018.6
2017-01-28T08:10:22.107Z,1018.61
2017-01-28T08:11:02.654Z,1018.59
2017-01-28T08:11:43.433Z,1018.57
2017-01-28T08:12:23.910Z,1018.57
2017-01-28T08:13:04.499Z,1018.6
2017-01-28T08:13:45.084Z,1018.59
2017-01-28T08:14:25.552Z,1018.62
2017-01-28T08:15:06.037Z,1018.59
2017-01-28T08:15:46.580Z,1018.57
2017-01-28T08:16:27.071Z,1018.56
2017-01-28T08:17:07.504Z,1018.56
2017-01-28T08:17:48.059Z,1018.6
2017-01-28T08:18:28.534Z,1018.58
2017-01-28T08:19:08.981Z,1018.56
2017-01-28T08:19:49.451Z,1018.57
2017-01-28T08:20:29.960Z,1018.58
2017-01-28T08:21:10.405Z,1018.57
2017-01-28T08:21:50.876Z,1018.56
2017-01-28T08:22:32.914Z,1018.59
2017-01-28T08:23:13.501Z,1018.64
2017-01-28T08:23:53.985Z,1018.57
2017-01-28T08:24:34.401Z,1018.58
2017-01-28T08:25:14.867Z,1018.58
2017-01-28T08:25:55.411Z,1018.54
2017-01-28T08:26:35.887Z,1018.57
2017-01-28T08:27:16.377Z,1018.59
2017-01-28T08:27:56.840Z,1018.54
2017-01-28T08:28:37.359Z,1018.57
2017-01-28T08:29:17.830Z,1018.59
2017-01-28T08:29:58.397Z,1018.54